createdAt,value
2022-08-30T00:11:59.363Z,61.5
2022-08-30T00:21:59.386Z,62.3
2022-08-30T00:31:59.194Z,62.8
2022-08-30T00:51:59.413Z,64.4
2022-08-30T01:11:59.469Z,65.5
2022-08-30T01:21:59.300Z,66
2022-08-30T01:31:59.492Z,65.8
2022-08-30T01:41:59.501Z,64.8
2022-08-30T01:52:00.884Z,64.4
2022-08-30T02:01:59.348Z,64.4
2022-08-30T02:12:00.135Z,64.8
2022-08-30T02:21:59.591Z,65.4
2022-08-30T02:31:59.591Z,66
2022-08-30T02:41:59.439Z,66.8
2022-08-30T02:51:59.632Z,67.3
2022-08-30T03:01:59.449Z,68.5
2022-08-30T03:11:59.679Z,69
2022-08-30T03:21:59.682Z,69.8
2022-08-30T03:31:59.721Z,70.7
2022-08-30T03:41:59.697Z,71.5
2022-08-30T03:51:59.737Z,71.7
2022-08-30T04:01:59.791Z,71.8
2022-08-30T04:11:59.797Z,72.1
2022-08-30T04:21:59.783Z,72.5
2022-08-30T04:31:59.684Z,72.8
2022-08-30T04:41:59.846Z,73.3
2022-08-30T04:51:59.813Z,74.2
2022-08-30T05:01:59.955Z,74.3
2022-08-30T05:11:59.880Z,74.1
2022-08-30T05:21:59.876Z,74.7
2022-08-30T05:31:59.892Z,74.9
2022-08-30T05:41:59.729Z,74.5
2022-08-30T05:52:00.514Z,74.2
2022-08-30T06:01:59.856Z,73.9
2022-08-30T06:11:59.968Z,73.9
2022-08-30T06:21:59.981Z,73.7
2022-08-30T06:32:00.009Z,72
2022-08-30T06:42:00.014Z,69.5
2022-08-30T06:52:00.040Z,66.4
2022-08-30T07:02:00.145Z,64.2
2022-08-30T07:22:00.067Z,58.3
2022-08-30T07:31:59.908Z,57.5
2022-08-30T07:42:00.116Z,55.5
2022-08-30T07:51:59.922Z,56
2022-08-30T08:02:00.277Z,54.5
2022-08-30T08:11:59.965Z,52.5
2022-08-30T08:22:20.878Z,52.9
2022-08-30T08:32:00.170Z,50.7
2022-08-30T08:42:00.059Z,48.7
2022-08-30T08:52:00.195Z,47.9
2022-08-30T09:02:00.295Z,46.9
2022-08-30T09:12:00.221Z,45.6
2022-08-30T09:22:00.248Z,43.5
2022-08-30T09:32:24.835Z,44.3
2022-08-30T09:42:00.274Z,42.2
2022-08-30T09:52:00.294Z,41.6
2022-08-30T10:02:00.320Z,41.3
2022-08-30T10:12:00.316Z,41
2022-08-30T10:32:00.397Z,41.2
2022-08-30T10:42:00.351Z,41.5
2022-08-30T10:52:00.404Z,42.7
2022-08-30T11:02:00.395Z,42.1
2022-08-30T11:12:00.398Z,41
2022-08-30T11:22:00.416Z,40.9
2022-08-30T11:32:00.248Z,39.5
2022-08-30T11:42:00.441Z,38.1
2022-08-30T11:52:27.320Z,39.2
2022-08-30T12:02:00.593Z,38.1
2022-08-30T12:32:00.560Z,38.4
2022-08-30T12:52:00.538Z,38.5
2022-08-30T13:02:00.477Z,38.6
2022-08-30T13:12:01.135Z,38.6
2022-08-30T13:22:00.409Z,37.3
2022-08-30T13:52:19.346Z,42
2022-08-30T14:02:08.089Z,41
2022-08-30T14:12:00.483Z,38.2
2022-08-30T14:22:00.676Z,37.4
2022-08-30T14:32:00.822Z,37.3
2022-08-30T14:52:00.713Z,39.2
2022-08-30T15:02:00.737Z,38.7
2022-08-30T15:12:00.744Z,38.2
2022-08-30T15:22:00.571Z,37.3
2022-08-30T15:32:00.973Z,38.2
2022-08-30T15:42:01.809Z,38.6
2022-08-30T15:52:00.815Z,40.2
2022-08-30T16:02:00.919Z,40.9
2022-08-30T16:12:00.845Z,41.7
2022-08-30T16:22:00.843Z,42.3
2022-08-30T16:32:00.862Z,44.2
2022-08-30T16:42:01.286Z,44.4
2022-08-30T16:52:00.889Z,45
2022-08-30T17:02:01.012Z,46.5
2022-08-30T17:12:00.913Z,47.4
2022-08-30T17:22:00.958Z,48
2022-08-30T17:32:01.026Z,49
2022-08-30T17:42:01.533Z,50.1
2022-08-30T17:52:00.968Z,51.1
2022-08-30T18:02:01.057Z,51.9
2022-08-30T18:12:01.009Z,52.6
2022-08-30T18:22:03.321Z,53
2022-08-30T19:02:00.937Z,54.7
2022-08-30T19:12:01.100Z,54.9
2022-08-30T19:32:01.110Z,55.3
2022-08-30T19:42:01.134Z,55.7
2022-08-30T19:52:01.037Z,56
2022-08-30T20:02:01.192Z,56.2
2022-08-30T20:32:01.210Z,57.7
2022-08-30T20:42:01.218Z,58.2
2022-08-30T20:52:01.250Z,58.5
2022-08-30T21:12:01.280Z,59.5
2022-08-30T21:22:01.275Z,60.1
2022-08-30T21:32:01.313Z,60.4
2022-08-30T21:42:01.317Z,60.6
2022-08-30T21:52:01.365Z,60.8
2022-08-30T22:02:01.363Z,61.1
2022-08-30T22:12:01.382Z,61.2
2022-08-30T22:22:01.819Z,61.6
2022-08-30T22:32:01.532Z,61.8
2022-08-30T22:42:01.996Z,62.3
2022-08-30T22:52:01.415Z,62.5
2022-08-30T23:02:01.597Z,62.3
2022-08-30T23:22:01.471Z,63
2022-08-30T23:32:01.568Z,63.2
2022-08-30T23:42:02.098Z,63.1
2022-08-30T23:52:01.502Z,63.7
